sensor_id;sensor_type;location;lat;lon;timestamp;temperature;humidity
53520;DHT22;39397;53.204;5.778;2022-08-19T00:01:27;16.40;99.90
53520;DHT22;39397;53.204;5.778;2022-08-19T00:03:55;16.20;99.90
53520;DHT22;39397;53.204;5.778;2022-08-19T00:06:21;16.40;99.90
53520;DHT22;39397;53.204;5.778;2022-08-19T00:08:47;16.30;99.90
53520;DHT22;39397;53.204;5.778;2022-08-19T00:11:13;16.20;99.90
53520;DHT22;39397;53.204;5.778;2022-08-19T00:13:38;16.30;99.90
53520;DHT22;39397;53.204;5.778;2022-08-19T00:16:05;16.30;99.90
53520;DHT22;39397;53.204;5.778;2022-08-19T00:18:32;16.20;99.90
53520;DHT22;39397;53.204;5.778;2022-08-19T00:21:01;16.10;99.90
53520;DHT22;39397;53.204;5.778;2022-08-19T00:23:27;16.20;99.90
53520;DHT22;39397;53.204;5.778;2022-08-19T00:25:53;16.20;99.90
53520;DHT22;39397;53.204;5.778;2022-08-19T00:28:19;16.10;99.90
53520;DHT22;39397;53.204;5.778;2022-08-19T00:30:46;16.20;99.90
53520;DHT22;39397;53.204;5.778;2022-08-19T00:33:11;16.10;99.90
53520;DHT22;39397;53.204;5.778;2022-08-19T00:35:39;16.20;99.90
53520;DHT22;39397;53.204;5.778;2022-08-19T00:38:05;16.10;99.90
53520;DHT22;39397;53.204;5.778;2022-08-19T00:40:32;16.20;99.90
53520;DHT22;39397;53.204;5.778;2022-08-19T00:42:58;16.20;99.90
53520;DHT22;39397;53.204;5.778;2022-08-19T00:45:26;16.20;99.90
53520;DHT22;39397;53.204;5.778;2022-08-19T00:47:52;16.10;99.90
53520;DHT22;39397;53.204;5.778;2022-08-19T00:50:19;16.10;99.90
53520;DHT22;39397;53.204;5.778;2022-08-19T00:52:49;16.10;99.90
53520;DHT22;39397;53.204;5.778;2022-08-19T00:55:24;16.10;99.90
53520;DHT22;39397;53.204;5.778;2022-08-19T00:57:55;16.10;99.90
53520;DHT22;39397;53.204;5.778;2022-08-19T01:00:23;16.10;99.90
53520;DHT22;39397;53.204;5.778;2022-08-19T01:02:49;16.10;99.90
53520;DHT22;39397;53.204;5.778;2022-08-19T01:05:24;16.00;99.90
53520;DHT22;39397;53.204;5.778;2022-08-19T01:07:53;15.90;99.90
53520;DHT22;39397;53.204;5.778;2022-08-19T01:10:23;16.00;99.90
53520;DHT22;39397;53.204;5.778;2022-08-19T01:12:51;15.90;99.90
53520;DHT22;39397;53.204;5.778;2022-08-19T01:15:21;15.90;99.90
53520;DHT22;39397;53.204;5.778;2022-08-19T01:17:48;16.00;99.90
53520;DHT22;39397;53.204;5.778;2022-08-19T01:20:20;16.00;99.90
53520;DHT22;39397;53.204;5.778;2022-08-19T01:22:47;15.90;99.90
53520;DHT22;39397;53.204;5.778;2022-08-19T01:25:16;15.90;99.90
53520;DHT22;39397;53.204;5.778;2022-08-19T01:27:44;15.90;99.90
53520;DHT22;39397;53.204;5.778;2022-08-19T01:30:18;15.80;99.90
53520;DHT22;39397;53.204;5.778;2022-08-19T01:32:45;15.90;99.90
53520;DHT22;39397;53.204;5.778;2022-08-19T01:35:14;15.90;99.90
53520;DHT22;39397;53.204;5.778;2022-08-19T01:37:51;15.80;99.90
53520;DHT22;39397;53.204;5.778;2022-08-19T01:40:19;16.00;99.90
53520;DHT22;39397;53.204;5.778;2022-08-19T01:42:47;15.80;99.90
53520;DHT22;39397;53.204;5.778;2022-08-19T01:45:13;15.90;99.90
53520;DHT22;39397;53.204;5.778;2022-08-19T01:47:39;15.80;99.90
53520;DHT22;39397;53.204;5.778;2022-08-19T01:50:07;15.80;99.90
53520;DHT22;39397;53.204;5.778;2022-08-19T01:52:36;15.70;99.90
53520;DHT22;39397;53.204;5.778;2022-08-19T01:55:02;15.80;99.90
53520;DHT22;39397;53.204;5.778;2022-08-19T01:57:28;15.60;99.90
53520;DHT22;39397;53.204;5.778;2022-08-19T01:59:54;15.70;99.90
53520;DHT22;39397;53.204;5.778;2022-08-19T02:02:20;15.70;99.90
53520;DHT22;39397;53.204;5.778;2022-08-19T02:04:45;15.70;99.90
53520;DHT22;39397;53.204;5.778;2022-08-19T02:07:11;15.70;99.90
53520;DHT22;39397;53.204;5.778;2022-08-19T02:09:37;15.60;99.90
53520;DHT22;39397;53.204;5.778;2022-08-19T02:12:04;15.70;99.90
53520;DHT22;39397;53.204;5.778;2022-08-19T02:14:30;15.70;99.90
53520;DHT22;39397;53.204;5.778;2022-08-19T02:16:55;15.60;99.90
53520;DHT22;39397;53.204;5.778;2022-08-19T02:19:21;15.60;99.90
53520;DHT22;39397;53.204;5.778;2022-08-19T02:21:47;15.60;99.90
53520;DHT22;39397;53.204;5.778;2022-08-19T02:24:13;15.60;99.90
53520;DHT22;39397;53.204;5.778;2022-08-19T02:26:39;15.50;99.90
53520;DHT22;39397;53.204;5.778;2022-08-19T02:29:04;15.60;99.90
53520;DHT22;39397;53.204;5.778;2022-08-19T02:31:30;15.60;99.90
53520;DHT22;39397;53.204;5.778;2022-08-19T02:33:56;15.50;99.90
53520;DHT22;39397;53.204;5.778;2022-08-19T02:36:24;15.50;99.90
53520;DHT22;39397;53.204;5.778;2022-08-19T02:38:50;15.60;99.90
53520;DHT22;39397;53.204;5.778;2022-08-19T02:41:21;15.50;99.90
53520;DHT22;39397;53.204;5.778;2022-08-19T02:43:47;15.50;99.90
53520;DHT22;39397;53.204;5.778;2022-08-19T02:46:20;15.60;99.90
53520;DHT22;39397;53.204;5.778;2022-08-19T02:48:50;15.60;99.90
53520;DHT22;39397;53.204;5.778;2022-08-19T02:51:44;15.50;99.90
53520;DHT22;39397;53.204;5.778;2022-08-19T02:54:12;15.50;99.90
53520;DHT22;39397;53.204;5.778;2022-08-19T02:56:40;15.50;99.90
53520;DHT22;39397;53.204;5.778;2022-08-19T02:59:06;15.50;99.90
53520;DHT22;39397;53.204;5.778;2022-08-19T03:01:34;15.50;99.90
53520;DHT22;39397;53.204;5.778;2022-08-19T03:04:02;15.50;99.90
53520;DHT22;39397;53.204;5.778;2022-08-19T03:06:29;15.50;99.90
53520;DHT22;39397;53.204;5.778;2022-08-19T03:08:55;15.60;99.90
53520;DHT22;39397;53.204;5.778;2022-08-19T03:11:39;15.50;99.90
53520;DHT22;39397;53.204;5.778;2022-08-19T03:14:07;15.40;99.90
53520;DHT22;39397;53.204;5.778;2022-08-19T03:16:44;15.50;99.90
53520;DHT22;39397;53.204;5.778;2022-08-19T03:19:10;15.50;99.90
53520;DHT22;39397;53.204;5.778;2022-08-19T03:21:35;15.50;99.90
53520;DHT22;39397;53.204;5.778;2022-08-19T03:24:05;15.50;99.90
53520;DHT22;39397;53.204;5.778;2022-08-19T03:26:31;15.50;99.90
53520;DHT22;39397;53.204;5.778;2022-08-19T03:28:57;15.50;99.90
53520;DHT22;39397;53.204;5.778;2022-08-19T03:31:25;15.50;99.90
53520;DHT22;39397;53.204;5.778;2022-08-19T03:33:51;15.50;99.90
53520;DHT22;39397;53.204;5.778;2022-08-19T03:36:22;14.40;99.90
53520;DHT22;39397;53.204;5.778;2022-08-19T03:38:58;15.50;99.90
53520;DHT22;39397;53.204;5.778;2022-08-19T03:41:27;15.50;99.90
53520;DHT22;39397;53.204;5.778;2022-08-19T03:43:54;15.30;99.90
53520;DHT22;39397;53.204;5.778;2022-08-19T03:46:23;15.50;99.90
53520;DHT22;39397;53.204;5.778;2022-08-19T03:48:52;15.50;99.90
53520;DHT22;39397;53.204;5.778;2022-08-19T03:51:27;15.40;99.90
53520;DHT22;39397;53.204;5.778;2022-08-19T03:53:54;15.50;99.90
53520;DHT22;39397;53.204;5.778;2022-08-19T03:56:21;15.40;99.90
53520;DHT22;39397;53.204;5.778;2022-08-19T03:58:47;15.30;99.90
53520;DHT22;39397;53.204;5.778;2022-08-19T04:01:16;16.00;99.90
53520;DHT22;39397;53.204;5.778;2022-08-19T04:03:44;15.40;99.90
53520;DHT22;39397;53.204;5.778;2022-08-19T04:06:24;15.50;99.90
53520;DHT22;39397;53.204;5.778;2022-08-19T04:08:52;15.40;99.90
53520;DHT22;39397;53.204;5.778;2022-08-19T04:11:32;16.70;99.90
53520;DHT22;39397;53.204;5.778;2022-08-19T04:13:59;15.40;99.90
53520;DHT22;39397;53.204;5.778;2022-08-19T04:16:26;15.40;99.90
53520;DHT22;39397;53.204;5.778;2022-08-19T04:18:59;15.40;99.90
53520;DHT22;39397;53.204;5.778;2022-08-19T04:21:26;15.40;99.90
53520;DHT22;39397;53.204;5.778;2022-08-19T04:23:53;16.40;99.90
53520;DHT22;39397;53.204;5.778;2022-08-19T04:26:31;15.40;99.90
53520;DHT22;39397;53.204;5.778;2022-08-19T04:29:03;15.50;99.90
53520;DHT22;39397;53.204;5.778;2022-08-19T04:31:31;15.40;99.90
53520;DHT22;39397;53.204;5.778;2022-08-19T04:34:01;15.60;99.90
53520;DHT22;39397;53.204;5.778;2022-08-19T04:36:29;15.40;99.90
53520;DHT22;39397;53.204;5.778;2022-08-19T04:38:57;15.50;99.90
53520;DHT22;39397;53.204;5.778;2022-08-19T04:41:23;15.50;99.90
53520;DHT22;39397;53.204;5.778;2022-08-19T04:44:08;15.50;99.90
53520;DHT22;39397;53.204;5.778;2022-08-19T04:46:34;15.50;99.90
53520;DHT22;39397;53.204;5.778;2022-08-19T04:49:00;15.50;99.90
53520;DHT22;39397;53.204;5.778;2022-08-19T04:51:27;15.60;99.90
53520;DHT22;39397;53.204;5.778;2022-08-19T04:53:53;15.50;99.90
53520;DHT22;39397;53.204;5.778;2022-08-19T04:56:20;15.50;99.90
53520;DHT22;39397;53.204;5.778;2022-08-19T04:58:52;15.60;99.90
53520;DHT22;39397;53.204;5.778;2022-08-19T05:01:21;15.60;99.90
53520;DHT22;39397;53.204;5.778;2022-08-19T05:03:47;15.60;99.90
53520;DHT22;39397;53.204;5.778;2022-08-19T05:06:15;15.70;99.90
53520;DHT22;39397;53.204;5.778;2022-08-19T05:08:42;15.70;99.90
53520;DHT22;39397;53.204;5.778;2022-08-19T05:11:17;15.80;99.90
53520;DHT22;39397;53.204;5.778;2022-08-19T05:13:44;15.80;99.90
53520;DHT22;39397;53.204;5.778;2022-08-19T05:16:12;15.90;99.90
53520;DHT22;39397;53.204;5.778;2022-08-19T05:18:38;15.80;99.90
53520;DHT22;39397;53.204;5.778;2022-08-19T05:21:24;16.00;99.90
53520;DHT22;39397;53.204;5.778;2022-08-19T05:24:09;16.00;99.90
53520;DHT22;39397;53.204;5.778;2022-08-19T05:26:39;16.00;99.90
53520;DHT22;39397;53.204;5.778;2022-08-19T05:29:06;16.10;99.90
53520;DHT22;39397;53.204;5.778;2022-08-19T05:31:33;16.10;99.90
53520;DHT22;39397;53.204;5.778;2022-08-19T05:33:59;16.20;99.90
53520;DHT22;39397;53.204;5.778;2022-08-19T05:36:26;16.20;99.90
53520;DHT22;39397;53.204;5.778;2022-08-19T05:38:52;16.10;99.90
53520;DHT22;39397;53.204;5.778;2022-08-19T05:41:19;16.30;99.90
53520;DHT22;39397;53.204;5.778;2022-08-19T05:43:45;16.40;99.90
53520;DHT22;39397;53.204;5.778;2022-08-19T05:46:19;16.40;99.90
53520;DHT22;39397;53.204;5.778;2022-08-19T05:48:45;16.50;99.90
53520;DHT22;39397;53.204;5.778;2022-08-19T05:51:12;16.50;99.90
53520;DHT22;39397;53.204;5.778;2022-08-19T05:53:37;16.70;99.90
53520;DHT22;39397;53.204;5.778;2022-08-19T05:56:12;17.20;99.90
53520;DHT22;39397;53.204;5.778;2022-08-19T05:58:42;16.80;99.90
53520;DHT22;39397;53.204;5.778;2022-08-19T06:01:17;16.90;99.90
53520;DHT22;39397;53.204;5.778;2022-08-19T06:03:43;17.10;99.90
53520;DHT22;39397;53.204;5.778;2022-08-19T06:06:11;17.00;99.90
53520;DHT22;39397;53.204;5.778;2022-08-19T06:08:37;17.10;99.90
53520;DHT22;39397;53.204;5.778;2022-08-19T06:11:22;17.20;99.90
53520;DHT22;39397;53.204;5.778;2022-08-19T06:13:50;17.30;99.90
53520;DHT22;39397;53.204;5.778;2022-08-19T06:16:22;17.40;99.90
53520;DHT22;39397;53.204;5.778;2022-08-19T06:18:52;17.50;99.90
53520;DHT22;39397;53.204;5.778;2022-08-19T06:21:22;17.60;99.90
53520;DHT22;39397;53.204;5.778;2022-08-19T06:23:48;17.60;99.90
53520;DHT22;39397;53.204;5.778;2022-08-19T06:26:16;17.80;99.90
53520;DHT22;39397;53.204;5.778;2022-08-19T06:28:43;17.80;99.90
53520;DHT22;39397;53.204;5.778;2022-08-19T06:31:17;17.90;99.90
53520;DHT22;39397;53.204;5.778;2022-08-19T06:33:43;17.90;99.90
53520;DHT22;39397;53.204;5.778;2022-08-19T06:36:37;18.10;99.90
53520;DHT22;39397;53.204;5.778;2022-08-19T06:39:07;18.20;99.90
53520;DHT22;39397;53.204;5.778;2022-08-19T06:41:42;18.30;99.90
53520;DHT22;39397;53.204;5.778;2022-08-19T06:44:08;18.40;99.90
53520;DHT22;39397;53.204;5.778;2022-08-19T06:46:35;18.40;99.90
53520;DHT22;39397;53.204;5.778;2022-08-19T06:49:05;18.50;99.90
53520;DHT22;39397;53.204;5.778;2022-08-19T06:51:30;18.70;99.90
53520;DHT22;39397;53.204;5.778;2022-08-19T06:53:58;18.80;99.90
53520;DHT22;39397;53.204;5.778;2022-08-19T06:56:27;18.80;99.90
53520;DHT22;39397;53.204;5.778;2022-08-19T06:59:02;18.90;99.90
53520;DHT22;39397;53.204;5.778;2022-08-19T07:01:29;19.10;99.90
53520;DHT22;39397;53.204;5.778;2022-08-19T07:03:55;19.20;99.90
53520;DHT22;39397;53.204;5.778;2022-08-19T07:06:21;19.30;99.90
53520;DHT22;39397;53.204;5.778;2022-08-19T07:08:48;19.40;99.90
53520;DHT22;39397;53.204;5.778;2022-08-19T07:11:15;19.50;99.90
53520;DHT22;39397;53.204;5.778;2022-08-19T07:13:43;19.60;99.90
53520;DHT22;39397;53.204;5.778;2022-08-19T07:16:13;19.60;99.90
53520;DHT22;39397;53.204;5.778;2022-08-19T07:18:39;19.80;99.90
53520;DHT22;39397;53.204;5.778;2022-08-19T07:21:07;19.80;99.90
53520;DHT22;39397;53.204;5.778;2022-08-19T07:23:33;20.00;99.90
53520;DHT22;39397;53.204;5.778;2022-08-19T07:26:28;20.10;99.90
53520;DHT22;39397;53.204;5.778;2022-08-19T07:28:55;20.20;99.90
53520;DHT22;39397;53.204;5.778;2022-08-19T07:31:24;20.20;99.90
53520;DHT22;39397;53.204;5.778;2022-08-19T07:33:52;20.20;99.90
53520;DHT22;39397;53.204;5.778;2022-08-19T07:36:23;20.30;99.90
53520;DHT22;39397;53.204;5.778;2022-08-19T07:38:51;20.40;99.90
53520;DHT22;39397;53.204;5.778;2022-08-19T07:41:23;20.50;99.90
53520;DHT22;39397;53.204;5.778;2022-08-19T07:43:49;20.70;99.90
53520;DHT22;39397;53.204;5.778;2022-08-19T07:46:15;20.80;99.90
53520;DHT22;39397;53.204;5.778;2022-08-19T07:48:43;20.90;99.90
53520;DHT22;39397;53.204;5.778;2022-08-19T07:51:11;21.20;99.90
53520;DHT22;39397;53.204;5.778;2022-08-19T07:53:37;21.10;99.90
53520;DHT22;39397;53.204;5.778;2022-08-19T07:56:05;21.10;99.90
53520;DHT22;39397;53.204;5.778;2022-08-19T07:58:37;21.20;99.90
53520;DHT22;39397;53.204;5.778;2022-08-19T08:01:05;21.30;99.90
53520;DHT22;39397;53.204;5.778;2022-08-19T08:03:31;21.30;99.90
53520;DHT22;39397;53.204;5.778;2022-08-19T08:06:16;21.50;99.90
53520;DHT22;39397;53.204;5.778;2022-08-19T08:09:01;21.70;99.90
53520;DHT22;39397;53.204;5.778;2022-08-19T08:11:45;21.20;99.90
53520;DHT22;39397;53.204;5.778;2022-08-19T08:14:34;22.00;99.90
53520;DHT22;39397;53.204;5.778;2022-08-19T08:17:01;22.10;99.90
53520;DHT22;39397;53.204;5.778;2022-08-19T08:19:27;22.30;99.90
53520;DHT22;39397;53.204;5.778;2022-08-19T08:21:58;22.40;99.90
53520;DHT22;39397;53.204;5.778;2022-08-19T08:24:27;22.60;99.90
53520;DHT22;39397;53.204;5.778;2022-08-19T08:26:54;22.80;99.90
53520;DHT22;39397;53.204;5.778;2022-08-19T08:29:20;22.90;99.90
53520;DHT22;39397;53.204;5.778;2022-08-19T08:31:46;22.90;99.90
53520;DHT22;39397;53.204;5.778;2022-08-19T08:34:13;23.10;99.90
53520;DHT22;39397;53.204;5.778;2022-08-19T08:36:42;23.10;99.90
53520;DHT22;39397;53.204;5.778;2022-08-19T08:39:14;23.20;99.90
53520;DHT22;39397;53.204;5.778;2022-08-19T08:41:59;23.20;99.90
53520;DHT22;39397;53.204;5.778;2022-08-19T08:47:17;23.60;99.90
53520;DHT22;39397;53.204;5.778;2022-08-19T08:49:52;24.60;99.90
53520;DHT22;39397;53.204;5.778;2022-08-19T08:52:31;23.70;99.90
53520;DHT22;39397;53.204;5.778;2022-08-19T08:55:04;23.80;99.90
53520;DHT22;39397;53.204;5.778;2022-08-19T08:57:38;24.10;99.90
53520;DHT22;39397;53.204;5.778;2022-08-19T09:00:09;24.20;99.90
53520;DHT22;39397;53.204;5.778;2022-08-19T09:02:36;24.20;99.90
53520;DHT22;39397;53.204;5.778;2022-08-19T09:05:01;24.40;99.90
53520;DHT22;39397;53.204;5.778;2022-08-19T09:07:43;24.70;99.90
53520;DHT22;39397;53.204;5.778;2022-08-19T09:10:24;24.60;99.90
53520;DHT22;39397;53.204;5.778;2022-08-19T09:13:20;24.60;99.90
53520;DHT22;39397;53.204;5.778;2022-08-19T09:15:53;24.70;99.90
53520;DHT22;39397;53.204;5.778;2022-08-19T09:18:22;24.80;99.90
53520;DHT22;39397;53.204;5.778;2022-08-19T09:20:47;24.90;99.90
53520;DHT22;39397;53.204;5.778;2022-08-19T09:23:14;25.10;99.90
53520;DHT22;39397;53.204;5.778;2022-08-19T09:25:39;25.10;99.90
53520;DHT22;39397;53.204;5.778;2022-08-19T09:28:05;25.20;99.90
53520;DHT22;39397;53.204;5.778;2022-08-19T09:30:34;25.10;99.90
53520;DHT22;39397;53.204;5.778;2022-08-19T09:33:00;25.30;99.90
53520;DHT22;39397;53.204;5.778;2022-08-19T09:35:28;25.30;99.90
53520;DHT22;39397;53.204;5.778;2022-08-19T09:37:55;25.30;99.90
53520;DHT22;39397;53.204;5.778;2022-08-19T09:40:22;25.40;99.90
53520;DHT22;39397;53.204;5.778;2022-08-19T09:42:48;25.50;99.90
53520;DHT22;39397;53.204;5.778;2022-08-19T09:45:15;25.30;99.90
53520;DHT22;39397;53.204;5.778;2022-08-19T09:47:42;25.40;99.90
53520;DHT22;39397;53.204;5.778;2022-08-19T09:50:11;25.20;99.90
53520;DHT22;39397;53.204;5.778;2022-08-19T09:52:38;25.20;99.90
53520;DHT22;39397;53.204;5.778;2022-08-19T09:55:08;25.10;99.90
53520;DHT22;39397;53.204;5.778;2022-08-19T09:57:34;25.40;99.90
53520;DHT22;39397;53.204;5.778;2022-08-19T10:00:00;25.40;99.90
53520;DHT22;39397;53.204;5.778;2022-08-19T10:02:26;25.50;99.90
53520;DHT22;39397;53.204;5.778;2022-08-19T10:04:52;25.60;99.90
53520;DHT22;39397;53.204;5.778;2022-08-19T10:07:36;25.70;99.90
53520;DHT22;39397;53.204;5.778;2022-08-19T10:10:04;25.80;99.90
53520;DHT22;39397;53.204;5.778;2022-08-19T10:12:30;25.70;99.90
53520;DHT22;39397;53.204;5.778;2022-08-19T10:14:56;25.70;99.90
53520;DHT22;39397;53.204;5.778;2022-08-19T10:17:22;25.50;99.90
53520;DHT22;39397;53.204;5.778;2022-08-19T10:19:47;25.50;99.90
53520;DHT22;39397;53.204;5.778;2022-08-19T10:22:13;25.50;99.90
53520;DHT22;39397;53.204;5.778;2022-08-19T10:24:40;25.50;99.90
53520;DHT22;39397;53.204;5.778;2022-08-19T10:27:06;25.60;99.90
53520;DHT22;39397;53.204;5.778;2022-08-19T10:29:32;25.70;99.90
53520;DHT22;39397;53.204;5.778;2022-08-19T10:32:01;25.90;99.90
53520;DHT22;39397;53.204;5.778;2022-08-19T10:34:28;25.90;99.90
53520;DHT22;39397;53.204;5.778;2022-08-19T10:36:55;26.30;99.90
53520;DHT22;39397;53.204;5.778;2022-08-19T10:39:22;26.40;99.90
53520;DHT22;39397;53.204;5.778;2022-08-19T10:41:47;26.40;99.90
53520;DHT22;39397;53.204;5.778;2022-08-19T10:44:13;26.40;99.90
53520;DHT22;39397;53.204;5.778;2022-08-19T10:46:42;26.40;99.90
53520;DHT22;39397;53.204;5.778;2022-08-19T10:49:12;26.50;99.90
53520;DHT22;39397;53.204;5.778;2022-08-19T10:51:39;26.40;99.90
53520;DHT22;39397;53.204;5.778;2022-08-19T10:54:25;26.40;99.90
53520;DHT22;39397;53.204;5.778;2022-08-19T10:57:10;26.10;99.90
53520;DHT22;39397;53.204;5.778;2022-08-19T10:59:36;25.90;99.90
53520;DHT22;39397;53.204;5.778;2022-08-19T11:02:05;25.80;99.90
53520;DHT22;39397;53.204;5.778;2022-08-19T11:04:31;25.90;99.90
53520;DHT22;39397;53.204;5.778;2022-08-19T11:06:58;25.80;99.90
53520;DHT22;39397;53.204;5.778;2022-08-19T11:09:26;25.90;99.90
53520;DHT22;39397;53.204;5.778;2022-08-19T11:11:54;26.30;99.90
53520;DHT22;39397;53.204;5.778;2022-08-19T11:14:22;26.30;99.90
53520;DHT22;39397;53.204;5.778;2022-08-19T11:16:49;26.30;99.90
53520;DHT22;39397;53.204;5.778;2022-08-19T11:19:16;26.20;99.90
53520;DHT22;39397;53.204;5.778;2022-08-19T11:21:47;26.10;99.90
53520;DHT22;39397;53.204;5.778;2022-08-19T11:24:17;26.20;99.90
53520;DHT22;39397;53.204;5.778;2022-08-19T11:26:44;26.20;99.90
53520;DHT22;39397;53.204;5.778;2022-08-19T11:29:12;26.10;99.90
53520;DHT22;39397;53.204;5.778;2022-08-19T11:31:40;26.10;99.90
53520;DHT22;39397;53.204;5.778;2022-08-19T11:34:08;26.10;99.90
53520;DHT22;39397;53.204;5.778;2022-08-19T11:36:37;25.90;99.90
53520;DHT22;39397;53.204;5.778;2022-08-19T11:39:05;25.90;99.90
53520;DHT22;39397;53.204;5.778;2022-08-19T11:41:31;25.90;99.90
53520;DHT22;39397;53.204;5.778;2022-08-19T11:43:57;26.00;99.90
53520;DHT22;39397;53.204;5.778;2022-08-19T11:46:25;26.20;99.90
53520;DHT22;39397;53.204;5.778;2022-08-19T11:48:51;26.20;99.90
53520;DHT22;39397;53.204;5.778;2022-08-19T11:51:20;26.30;99.90
53520;DHT22;39397;53.204;5.778;2022-08-19T11:53:47;26.60;99.90
53520;DHT22;39397;53.204;5.778;2022-08-19T11:56:13;26.40;99.90
53520;DHT22;39397;53.204;5.778;2022-08-19T11:58:39;26.60;99.90
53520;DHT22;39397;53.204;5.778;2022-08-19T12:01:08;26.80;99.90
53520;DHT22;39397;53.204;5.778;2022-08-19T12:03:35;26.90;99.90
53520;DHT22;39397;53.204;5.778;2022-08-19T12:06:05;26.90;99.90
53520;DHT22;39397;53.204;5.778;2022-08-19T12:08:31;26.90;99.90
53520;DHT22;39397;53.204;5.778;2022-08-19T12:10:57;26.60;99.90
53520;DHT22;39397;53.204;5.778;2022-08-19T12:13:22;26.60;99.90
53520;DHT22;39397;53.204;5.778;2022-08-19T12:15:48;26.30;99.90
53520;DHT22;39397;53.204;5.778;2022-08-19T12:18:14;26.50;99.90
53520;DHT22;39397;53.204;5.778;2022-08-19T12:20:41;26.40;99.90
53520;DHT22;39397;53.204;5.778;2022-08-19T12:23:09;26.70;99.90
53520;DHT22;39397;53.204;5.778;2022-08-19T12:25:36;26.80;99.90
53520;DHT22;39397;53.204;5.778;2022-08-19T12:28:02;26.90;99.90
53520;DHT22;39397;53.204;5.778;2022-08-19T12:30:28;26.90;99.90
53520;DHT22;39397;53.204;5.778;2022-08-19T12:32:54;26.90;99.90
53520;DHT22;39397;53.204;5.778;2022-08-19T12:35:19;26.70;99.90
53520;DHT22;39397;53.204;5.778;2022-08-19T12:37:47;26.90;99.90
53520;DHT22;39397;53.204;5.778;2022-08-19T12:40:14;26.80;99.90
53520;DHT22;39397;53.204;5.778;2022-08-19T12:42:40;26.80;99.90
53520;DHT22;39397;53.204;5.778;2022-08-19T12:45:12;26.60;99.90
53520;DHT22;39397;53.204;5.778;2022-08-19T12:47:39;25.50;99.90
53520;DHT22;39397;53.204;5.778;2022-08-19T12:50:05;26.70;99.90
53520;DHT22;39397;53.204;5.778;2022-08-19T12:52:37;26.70;99.90
53520;DHT22;39397;53.204;5.778;2022-08-19T12:55:06;26.60;99.90
53520;DHT22;39397;53.204;5.778;2022-08-19T12:57:32;26.70;99.90
53520;DHT22;39397;53.204;5.778;2022-08-19T13:00:12;26.70;99.90
53520;DHT22;39397;53.204;5.778;2022-08-19T13:02:42;26.60;99.90
53520;DHT22;39397;53.204;5.778;2022-08-19T13:05:13;26.90;99.90
53520;DHT22;39397;53.204;5.778;2022-08-19T13:07:40;26.90;99.90
53520;DHT22;39397;53.204;5.778;2022-08-19T13:10:08;26.80;99.90
53520;DHT22;39397;53.204;5.778;2022-08-19T13:12:34;26.60;99.90
53520;DHT22;39397;53.204;5.778;2022-08-19T13:15:00;26.60;99.90
53520;DHT22;39397;53.204;5.778;2022-08-19T13:17:26;26.60;99.90
53520;DHT22;39397;53.204;5.778;2022-08-19T13:19:52;28.90;99.90
53520;DHT22;39397;53.204;5.778;2022-08-19T13:22:18;26.90;99.90
53520;DHT22;39397;53.204;5.778;2022-08-19T13:24:44;26.80;99.90
53520;DHT22;39397;53.204;5.778;2022-08-19T13:27:10;26.80;99.90
53520;DHT22;39397;53.204;5.778;2022-08-19T13:29:35;26.60;99.90
53520;DHT22;39397;53.204;5.778;2022-08-19T13:32:19;26.50;99.90
53520;DHT22;39397;53.204;5.778;2022-08-19T13:35:05;26.30;99.90
53520;DHT22;39397;53.204;5.778;2022-08-19T13:37:31;26.30;99.90
53520;DHT22;39397;53.204;5.778;2022-08-19T13:40:13;26.30;99.90
53520;DHT22;39397;53.204;5.778;2022-08-19T13:42:44;26.30;99.90
53520;DHT22;39397;53.204;5.778;2022-08-19T13:45:11;26.40;99.90
53520;DHT22;39397;53.204;5.778;2022-08-19T13:47:38;26.40;99.90
53520;DHT22;39397;53.204;5.778;2022-08-19T13:50:18;26.30;99.90
53520;DHT22;39397;53.204;5.778;2022-08-19T13:52:46;26.30;99.90
53520;DHT22;39397;53.204;5.778;2022-08-19T13:55:13;26.00;99.90
53520;DHT22;39397;53.204;5.778;2022-08-19T13:57:39;26.30;99.90
53520;DHT22;39397;53.204;5.778;2022-08-19T14:00:13;26.30;99.90
53520;DHT22;39397;53.204;5.778;2022-08-19T14:02:40;26.10;99.90
53520;DHT22;39397;53.204;5.778;2022-08-19T14:05:08;26.00;99.90
53520;DHT22;39397;53.204;5.778;2022-08-19T14:07:34;26.00;99.90
53520;DHT22;39397;53.204;5.778;2022-08-19T14:10:02;26.10;99.90
53520;DHT22;39397;53.204;5.778;2022-08-19T14:12:30;26.10;99.90
53520;DHT22;39397;53.204;5.778;2022-08-19T14:14:57;26.20;99.90
53520;DHT22;39397;53.204;5.778;2022-08-19T14:17:23;26.20;99.90
53520;DHT22;39397;53.204;5.778;2022-08-19T14:19:57;26.50;99.90
53520;DHT22;39397;53.204;5.778;2022-08-19T14:22:23;26.80;99.90
53520;DHT22;39397;53.204;5.778;2022-08-19T14:24:49;26.70;99.90
53520;DHT22;39397;53.204;5.778;2022-08-19T14:27:15;26.90;99.90
53520;DHT22;39397;53.204;5.778;2022-08-19T14:29:42;26.90;99.90
53520;DHT22;39397;53.204;5.778;2022-08-19T14:32:07;27.20;99.90
53520;DHT22;39397;53.204;5.778;2022-08-19T14:34:33;27.40;99.60
53520;DHT22;39397;53.204;5.778;2022-08-19T14:37:00;27.40;99.50
53520;DHT22;39397;53.204;5.778;2022-08-19T14:39:25;27.30;99.50
53520;DHT22;39397;53.204;5.778;2022-08-19T14:41:51;27.10;99.10
53520;DHT22;39397;53.204;5.778;2022-08-19T14:44:17;26.80;99.30
53520;DHT22;39397;53.204;5.778;2022-08-19T14:46:43;26.60;99.40
53520;DHT22;39397;53.204;5.778;2022-08-19T14:49:10;26.40;99.70
53520;DHT22;39397;53.204;5.778;2022-08-19T14:51:36;26.40;99.90
53520;DHT22;39397;53.204;5.778;2022-08-19T14:54:02;26.60;99.90
53520;DHT22;39397;53.204;5.778;2022-08-19T14:56:34;26.00;99.90
53520;DHT22;39397;53.204;5.778;2022-08-19T14:59:00;27.00;99.90
53520;DHT22;39397;53.204;5.778;2022-08-19T15:01:26;27.50;99.30
53520;DHT22;39397;53.204;5.778;2022-08-19T15:03:52;27.50;99.50
53520;DHT22;39397;53.204;5.778;2022-08-19T15:06:21;27.40;99.30
53520;DHT22;39397;53.204;5.778;2022-08-19T15:08:48;27.20;99.40
53520;DHT22;39397;53.204;5.778;2022-08-19T15:11:17;27.00;99.70
53520;DHT22;39397;53.204;5.778;2022-08-19T15:13:46;26.70;99.90
53520;DHT22;39397;53.204;5.778;2022-08-19T15:16:13;26.50;99.90
53520;DHT22;39397;53.204;5.778;2022-08-19T15:18:40;26.20;99.90
53520;DHT22;39397;53.204;5.778;2022-08-19T15:21:10;26.20;99.90
53520;DHT22;39397;53.204;5.778;2022-08-19T15:23:38;26.10;99.90
53520;DHT22;39397;53.204;5.778;2022-08-19T15:26:04;26.00;99.90
53520;DHT22;39397;53.204;5.778;2022-08-19T15:28:33;26.10;99.90
53520;DHT22;39397;53.204;5.778;2022-08-19T15:30:59;25.90;99.90
53520;DHT22;39397;53.204;5.778;2022-08-19T15:33:24;26.10;99.90
53520;DHT22;39397;53.204;5.778;2022-08-19T15:35:51;26.20;99.90
53520;DHT22;39397;53.204;5.778;2022-08-19T15:38:20;26.10;99.90
53520;DHT22;39397;53.204;5.778;2022-08-19T15:40:47;26.10;99.90
53520;DHT22;39397;53.204;5.778;2022-08-19T15:43:18;26.40;99.90